sensor_id;sensor_type;location;lat;lon;timestamp;P1;durP1;ratioP1;P2;durP2;ratioP2
19049;SDS011;9657;45.940;12.840;2023-08-31T00:00:49;2.63;;;1.35;;
19049;SDS011;9657;45.940;12.840;2023-08-31T00:03:17;2.30;;;1.13;;
19049;SDS011;9657;45.940;12.840;2023-08-31T00:05:45;2.20;;;1.20;;
19049;SDS011;9657;45.940;12.840;2023-08-31T00:08:12;1.10;;;0.93;;
19049;SDS011;9657;45.940;12.840;2023-08-31T00:10:39;1.33;;;1.02;;
19049;SDS011;9657;45.940;12.840;2023-08-31T00:13:07;1.25;;;0.95;;
19049;SDS011;9657;45.940;12.840;2023-08-31T00:15:34;5.18;;;1.10;;
19049;SDS011;9657;45.940;12.840;2023-08-31T00:18:02;1.27;;;1.00;;
19049;SDS011;9657;45.940;12.840;2023-08-31T00:20:29;2.58;;;0.95;;
19049;SDS011;9657;45.940;12.840;2023-08-31T00:22:58;1.38;;;1.20;;
19049;SDS011;9657;45.940;12.840;2023-08-31T00:25:25;1.08;;;1.00;;
19049;SDS011;9657;45.940;12.840;2023-08-31T00:27:53;1.00;;;0.88;;
19049;SDS011;9657;45.940;12.840;2023-08-31T00:30:23;1.15;;;0.75;;
19049;SDS011;9657;45.940;12.840;2023-08-31T00:32:54;1.73;;;0.80;;
19049;SDS011;9657;45.940;12.840;2023-08-31T00:35:25;1.25;;;1.08;;
19049;SDS011;9657;45.940;12.840;2023-08-31T00:37:53;1.95;;;1.00;;
19049;SDS011;9657;45.940;12.840;2023-08-31T00:40:22;1.38;;;0.90;;
19049;SDS011;9657;45.940;12.840;2023-08-31T00:42:49;2.22;;;0.80;;
19049;SDS011;9657;45.940;12.840;2023-08-31T00:45:17;1.27;;;0.80;;
19049;SDS011;9657;45.940;12.840;2023-08-31T00:47:45;2.17;;;0.88;;
19049;SDS011;9657;45.940;12.840;2023-08-31T00:50:14;1.45;;;0.70;;
19049;SDS011;9657;45.940;12.840;2023-08-31T00:52:41;2.45;;;1.00;;
19049;SDS011;9657;45.940;12.840;2023-08-31T00:55:10;1.77;;;0.82;;
19049;SDS011;9657;45.940;12.840;2023-08-31T00:57:37;1.08;;;0.70;;
19049;SDS011;9657;45.940;12.840;2023-08-31T01:02:43;2.15;;;0.75;;
19049;SDS011;9657;45.940;12.840;2023-08-31T01:05:37;1.30;;;0.63;;
19049;SDS011;9657;45.940;12.840;2023-08-31T01:08:14;0.85;;;0.70;;
19049;SDS011;9657;45.940;12.840;2023-08-31T01:10:54;2.78;;;1.10;;
19049;SDS011;9657;45.940;12.840;2023-08-31T01:13:27;0.93;;;0.82;;
19049;SDS011;9657;45.940;12.840;2023-08-31T01:15:59;1.10;;;0.80;;
19049;SDS011;9657;45.940;12.840;2023-08-31T01:18:30;1.17;;;0.80;;
19049;SDS011;9657;45.940;12.840;2023-08-31T01:21:01;1.15;;;0.73;;
19049;SDS011;9657;45.940;12.840;2023-08-31T01:23:41;2.88;;;0.70;;
19049;SDS011;9657;45.940;12.840;2023-08-31T01:26:18;1.48;;;0.70;;
19049;SDS011;9657;45.940;12.840;2023-08-31T01:28:46;0.93;;;0.73;;
19049;SDS011;9657;45.940;12.840;2023-08-31T01:31:14;2.00;;;0.60;;
19049;SDS011;9657;45.940;12.840;2023-08-31T01:33:41;1.65;;;0.80;;
19049;SDS011;9657;45.940;12.840;2023-08-31T01:36:11;1.08;;;0.60;;
19049;SDS011;9657;45.940;12.840;2023-08-31T01:38:44;1.45;;;0.80;;
19049;SDS011;9657;45.940;12.840;2023-08-31T01:41:16;1.25;;;0.70;;
19049;SDS011;9657;45.940;12.840;2023-08-31T01:43:45;1.23;;;0.70;;
19049;SDS011;9657;45.940;12.840;2023-08-31T01:46:14;1.10;;;0.60;;
19049;SDS011;9657;45.940;12.840;2023-08-31T01:48:42;1.50;;;0.82;;
19049;SDS011;9657;45.940;12.840;2023-08-31T01:51:09;0.85;;;0.60;;
19049;SDS011;9657;45.940;12.840;2023-08-31T01:53:37;1.30;;;0.68;;
19049;SDS011;9657;45.940;12.840;2023-08-31T01:56:06;0.90;;;0.70;;
19049;SDS011;9657;45.940;12.840;2023-08-31T01:58:33;1.83;;;0.73;;
19049;SDS011;9657;45.940;12.840;2023-08-31T02:01:00;0.98;;;0.50;;
19049;SDS011;9657;45.940;12.840;2023-08-31T02:03:27;1.20;;;0.50;;
19049;SDS011;9657;45.940;12.840;2023-08-31T02:05:54;0.90;;;0.70;;
19049;SDS011;9657;45.940;12.840;2023-08-31T02:08:21;3.38;;;0.73;;
19049;SDS011;9657;45.940;12.840;2023-08-31T02:10:48;0.63;;;0.52;;
19049;SDS011;9657;45.940;12.840;2023-08-31T02:13:17;1.15;;;0.60;;
19049;SDS011;9657;45.940;12.840;2023-08-31T02:15:44;0.95;;;0.70;;
19049;SDS011;9657;45.940;12.840;2023-08-31T02:18:11;2.15;;;0.63;;
19049;SDS011;9657;45.940;12.840;2023-08-31T02:20:38;2.60;;;0.63;;
19049;SDS011;9657;45.940;12.840;2023-08-31T02:23:05;1.73;;;0.80;;
19049;SDS011;9657;45.940;12.840;2023-08-31T02:25:32;1.27;;;0.50;;
19049;SDS011;9657;45.940;12.840;2023-08-31T02:27:59;1.00;;;0.80;;
19049;SDS011;9657;45.940;12.840;2023-08-31T02:30:28;0.75;;;0.55;;
19049;SDS011;9657;45.940;12.840;2023-08-31T02:32:55;0.85;;;0.50;;
19049;SDS011;9657;45.940;12.840;2023-08-31T02:35:22;0.68;;;0.40;;
19049;SDS011;9657;45.940;12.840;2023-08-31T02:37:49;0.80;;;0.70;;
19049;SDS011;9657;45.940;12.840;2023-08-31T02:40:17;0.57;;;0.50;;
19049;SDS011;9657;45.940;12.840;2023-08-31T02:42:46;1.73;;;0.60;;
19049;SDS011;9657;45.940;12.840;2023-08-31T02:45:13;0.95;;;0.70;;
19049;SDS011;9657;45.940;12.840;2023-08-31T02:47:42;0.95;;;0.60;;
19049;SDS011;9657;45.940;12.840;2023-08-31T02:50:09;0.50;;;0.43;;
19049;SDS011;9657;45.940;12.840;2023-08-31T02:52:36;2.67;;;0.88;;
19049;SDS011;9657;45.940;12.840;2023-08-31T02:55:04;3.92;;;0.88;;
19049;SDS011;9657;45.940;12.840;2023-08-31T02:57:31;0.95;;;0.65;;
19049;SDS011;9657;45.940;12.840;2023-08-31T02:59:58;0.70;;;0.52;;
19049;SDS011;9657;45.940;12.840;2023-08-31T03:02:25;2.40;;;0.63;;
19049;SDS011;9657;45.940;12.840;2023-08-31T03:04:54;1.67;;;0.63;;
19049;SDS011;9657;45.940;12.840;2023-08-31T03:07:22;1.90;;;0.80;;
19049;SDS011;9657;45.940;12.840;2023-08-31T03:09:49;1.73;;;0.60;;
19049;SDS011;9657;45.940;12.840;2023-08-31T03:12:16;1.00;;;0.60;;
19049;SDS011;9657;45.940;12.840;2023-08-31T03:14:43;2.15;;;0.57;;
19049;SDS011;9657;45.940;12.840;2023-08-31T03:17:10;1.70;;;0.80;;
19049;SDS011;9657;45.940;12.840;2023-08-31T03:19:37;1.50;;;0.60;;
19049;SDS011;9657;45.940;12.840;2023-08-31T03:22:06;1.85;;;0.73;;
19049;SDS011;9657;45.940;12.840;2023-08-31T03:24:33;2.63;;;0.65;;
19049;SDS011;9657;45.940;12.840;2023-08-31T03:27:00;0.90;;;0.60;;
19049;SDS011;9657;45.940;12.840;2023-08-31T03:29:28;1.13;;;0.70;;
19049;SDS011;9657;45.940;12.840;2023-08-31T03:31:57;2.15;;;0.60;;
19049;SDS011;9657;45.940;12.840;2023-08-31T03:34:24;1.38;;;0.60;;
19049;SDS011;9657;45.940;12.840;2023-08-31T03:36:55;1.35;;;0.60;;
19049;SDS011;9657;45.940;12.840;2023-08-31T03:39:24;0.85;;;0.55;;
19049;SDS011;9657;45.940;12.840;2023-08-31T03:41:51;1.17;;;0.90;;
19049;SDS011;9657;45.940;12.840;2023-08-31T03:44:20;1.45;;;0.60;;
19049;SDS011;9657;45.940;12.840;2023-08-31T03:46:47;1.75;;;0.75;;
19049;SDS011;9657;45.940;12.840;2023-08-31T03:49:14;2.13;;;0.70;;
19049;SDS011;9657;45.940;12.840;2023-08-31T03:51:41;3.50;;;0.80;;
19049;SDS011;9657;45.940;12.840;2023-08-31T03:54:08;1.20;;;0.88;;
19049;SDS011;9657;45.940;12.840;2023-08-31T03:56:36;1.70;;;0.65;;
19049;SDS011;9657;45.940;12.840;2023-08-31T03:59:03;2.90;;;0.65;;
19049;SDS011;9657;45.940;12.840;2023-08-31T04:01:30;3.88;;;0.73;;
19049;SDS011;9657;45.940;12.840;2023-08-31T04:03:57;1.77;;;0.80;;
19049;SDS011;9657;45.940;12.840;2023-08-31T04:06:24;1.45;;;0.85;;
19049;SDS011;9657;45.940;12.840;2023-08-31T04:08:53;1.30;;;0.73;;
19049;SDS011;9657;45.940;12.840;2023-08-31T04:11:20;1.13;;;0.60;;
19049;SDS011;9657;45.940;12.840;2023-08-31T04:13:49;1.23;;;0.80;;
19049;SDS011;9657;45.940;12.840;2023-08-31T04:16:16;1.35;;;0.80;;
19049;SDS011;9657;45.940;12.840;2023-08-31T04:18:43;1.60;;;0.85;;
19049;SDS011;9657;45.940;12.840;2023-08-31T04:21:12;2.60;;;0.70;;
19049;SDS011;9657;45.940;12.840;2023-08-31T04:23:39;1.67;;;0.70;;
19049;SDS011;9657;45.940;12.840;2023-08-31T04:26:10;1.67;;;0.82;;
19049;SDS011;9657;45.940;12.840;2023-08-31T04:28:38;2.00;;;0.80;;
19049;SDS011;9657;45.940;12.840;2023-08-31T04:31:07;1.05;;;0.60;;
19049;SDS011;9657;45.940;12.840;2023-08-31T04:33:34;3.58;;;0.80;;
19049;SDS011;9657;45.940;12.840;2023-08-31T04:36:02;2.28;;;0.68;;
19049;SDS011;9657;45.940;12.840;2023-08-31T04:38:29;2.35;;;0.55;;
19049;SDS011;9657;45.940;12.840;2023-08-31T04:40:57;2.20;;;0.93;;
19049;SDS011;9657;45.940;12.840;2023-08-31T04:43:25;1.85;;;0.90;;
19049;SDS011;9657;45.940;12.840;2023-08-31T04:45:53;2.13;;;0.80;;
19049;SDS011;9657;45.940;12.840;2023-08-31T04:48:21;1.88;;;0.80;;
19049;SDS011;9657;45.940;12.840;2023-08-31T04:50:48;2.80;;;0.93;;
19049;SDS011;9657;45.940;12.840;2023-08-31T04:53:15;1.95;;;0.85;;
19049;SDS011;9657;45.940;12.840;2023-08-31T04:55:42;1.42;;;1.00;;
19049;SDS011;9657;45.940;12.840;2023-08-31T04:58:09;3.58;;;1.02;;
19049;SDS011;9657;45.940;12.840;2023-08-31T05:00:36;2.75;;;0.70;;
19049;SDS011;9657;45.940;12.840;2023-08-31T05:03:04;2.95;;;1.10;;
19049;SDS011;9657;45.940;12.840;2023-08-31T05:05:33;2.17;;;0.90;;
19049;SDS011;9657;45.940;12.840;2023-08-31T05:08:00;4.18;;;1.10;;
19049;SDS011;9657;45.940;12.840;2023-08-31T05:10:28;1.65;;;1.00;;
19049;SDS011;9657;45.940;12.840;2023-08-31T05:12:55;1.77;;;1.13;;
19049;SDS011;9657;45.940;12.840;2023-08-31T05:15:22;4.10;;;1.08;;
19049;SDS011;9657;45.940;12.840;2023-08-31T05:17:52;3.08;;;1.05;;
19049;SDS011;9657;45.940;12.840;2023-08-31T05:20:19;2.10;;;0.85;;
19049;SDS011;9657;45.940;12.840;2023-08-31T05:22:50;4.63;;;1.00;;
19049;SDS011;9657;45.940;12.840;2023-08-31T05:25:17;1.52;;;1.10;;
19049;SDS011;9657;45.940;12.840;2023-08-31T05:27:44;2.72;;;0.90;;
19049;SDS011;9657;45.940;12.840;2023-08-31T05:30:11;1.95;;;1.10;;
19049;SDS011;9657;45.940;12.840;2023-08-31T05:32:38;3.53;;;1.08;;
19049;SDS011;9657;45.940;12.840;2023-08-31T05:35:04;1.75;;;0.95;;
19049;SDS011;9657;45.940;12.840;2023-08-31T05:37:33;2.55;;;0.93;;
19049;SDS011;9657;45.940;12.840;2023-08-31T05:40:02;3.30;;;1.65;;
19049;SDS011;9657;45.940;12.840;2023-08-31T05:42:32;2.17;;;0.93;;
19049;SDS011;9657;45.940;12.840;2023-08-31T05:44:59;2.65;;;1.05;;
19049;SDS011;9657;45.940;12.840;2023-08-31T05:47:26;2.75;;;1.42;;
19049;SDS011;9657;45.940;12.840;2023-08-31T05:49:53;2.17;;;1.05;;
19049;SDS011;9657;45.940;12.840;2023-08-31T05:52:20;2.22;;;1.02;;
19049;SDS011;9657;45.940;12.840;2023-08-31T05:54:48;2.38;;;1.10;;
19049;SDS011;9657;45.940;12.840;2023-08-31T05:57:18;1.90;;;1.10;;
19049;SDS011;9657;45.940;12.840;2023-08-31T05:59:46;1.92;;;1.20;;
19049;SDS011;9657;45.940;12.840;2023-08-31T06:02:13;1.27;;;1.00;;
19049;SDS011;9657;45.940;12.840;2023-08-31T06:04:40;4.47;;;1.25;;
19049;SDS011;9657;45.940;12.840;2023-08-31T06:07:08;1.42;;;1.05;;
19049;SDS011;9657;45.940;12.840;2023-08-31T06:09:35;2.38;;;1.00;;
19049;SDS011;9657;45.940;12.840;2023-08-31T06:12:03;1.30;;;0.98;;
19049;SDS011;9657;45.940;12.840;2023-08-31T06:14:33;1.83;;;1.08;;
19049;SDS011;9657;45.940;12.840;2023-08-31T06:17:00;1.90;;;1.20;;
19049;SDS011;9657;45.940;12.840;2023-08-31T06:19:27;1.40;;;1.20;;
19049;SDS011;9657;45.940;12.840;2023-08-31T06:21:54;2.13;;;1.05;;
19049;SDS011;9657;45.940;12.840;2023-08-31T06:24:21;2.85;;;1.17;;
19049;SDS011;9657;45.940;12.840;2023-08-31T06:26:49;2.05;;;0.90;;
19049;SDS011;9657;45.940;12.840;2023-08-31T06:29:17;1.63;;;1.10;;
19049;SDS011;9657;45.940;12.840;2023-08-31T06:31:45;1.35;;;0.93;;
19049;SDS011;9657;45.940;12.840;2023-08-31T06:34:12;2.42;;;0.88;;
19049;SDS011;9657;45.940;12.840;2023-08-31T06:36:39;3.50;;;1.20;;
19049;SDS011;9657;45.940;12.840;2023-08-31T06:39:06;1.60;;;0.90;;
19049;SDS011;9657;45.940;12.840;2023-08-31T06:41:33;2.42;;;0.93;;
19049;SDS011;9657;45.940;12.840;2023-08-31T06:44:01;1.98;;;1.00;;
19049;SDS011;9657;45.940;12.840;2023-08-31T06:46:29;2.30;;;1.25;;
19049;SDS011;9657;45.940;12.840;2023-08-31T06:49:00;2.08;;;0.90;;
19049;SDS011;9657;45.940;12.840;2023-08-31T06:51:28;2.50;;;1.02;;
19049;SDS011;9657;45.940;12.840;2023-08-31T06:53:55;2.70;;;1.13;;
19049;SDS011;9657;45.940;12.840;2023-08-31T06:56:27;2.10;;;0.98;;
19049;SDS011;9657;45.940;12.840;2023-08-31T06:58:54;2.42;;;0.82;;
19049;SDS011;9657;45.940;12.840;2023-08-31T07:01:21;2.72;;;1.13;;
19049;SDS011;9657;45.940;12.840;2023-08-31T07:03:48;2.42;;;0.88;;
19049;SDS011;9657;45.940;12.840;2023-08-31T07:06:16;1.85;;;0.98;;
19049;SDS011;9657;45.940;12.840;2023-08-31T07:08:43;3.30;;;0.93;;
19049;SDS011;9657;45.940;12.840;2023-08-31T07:11:12;4.30;;;0.90;;
19049;SDS011;9657;45.940;12.840;2023-08-31T07:13:39;1.33;;;0.90;;
19049;SDS011;9657;45.940;12.840;2023-08-31T07:16:06;0.65;;;0.57;;
19049;SDS011;9657;45.940;12.840;2023-08-31T07:18:35;1.67;;;0.75;;
19049;SDS011;9657;45.940;12.840;2023-08-31T07:21:02;0.77;;;0.77;;
19049;SDS011;9657;45.940;12.840;2023-08-31T07:23:32;1.15;;;0.90;;
19049;SDS011;9657;45.940;12.840;2023-08-31T07:25:59;1.70;;;0.70;;
19049;SDS011;9657;45.940;12.840;2023-08-31T07:28:26;1.33;;;0.55;;
19049;SDS011;9657;45.940;12.840;2023-08-31T07:31:00;1.00;;;0.85;;
19049;SDS011;9657;45.940;12.840;2023-08-31T07:33:28;1.95;;;0.70;;
19049;SDS011;9657;45.940;12.840;2023-08-31T07:35:56;0.85;;;0.70;;
19049;SDS011;9657;45.940;12.840;2023-08-31T07:38:23;2.42;;;0.80;;
19049;SDS011;9657;45.940;12.840;2023-08-31T07:40:52;0.60;;;0.60;;
19049;SDS011;9657;45.940;12.840;2023-08-31T07:43:19;0.70;;;0.70;;
19049;SDS011;9657;45.940;12.840;2023-08-31T07:45:46;1.58;;;0.80;;
19049;SDS011;9657;45.940;12.840;2023-08-31T07:48:14;1.48;;;0.90;;
19049;SDS011;9657;45.940;12.840;2023-08-31T07:50:41;0.93;;;0.70;;
19049;SDS011;9657;45.940;12.840;2023-08-31T07:53:08;1.20;;;0.90;;
19049;SDS011;9657;45.940;12.840;2023-08-31T07:55:35;1.30;;;1.00;;
19049;SDS011;9657;45.940;12.840;2023-08-31T07:58:04;1.45;;;1.00;;
19049;SDS011;9657;45.940;12.840;2023-08-31T08:00:31;3.60;;;1.15;;
19049;SDS011;9657;45.940;12.840;2023-08-31T08:02:58;3.80;;;1.20;;
19049;SDS011;9657;45.940;12.840;2023-08-31T08:05:25;2.60;;;1.02;;
19049;SDS011;9657;45.940;12.840;2023-08-31T08:07:52;1.63;;;1.05;;
19049;SDS011;9657;45.940;12.840;2023-08-31T08:10:19;1.25;;;0.88;;
19049;SDS011;9657;45.940;12.840;2023-08-31T08:12:46;1.95;;;0.90;;
19049;SDS011;9657;45.940;12.840;2023-08-31T08:15:14;2.63;;;1.10;;
19049;SDS011;9657;45.940;12.840;2023-08-31T08:17:41;1.45;;;0.98;;
19049;SDS011;9657;45.940;12.840;2023-08-31T08:20:09;4.38;;;1.27;;
19049;SDS011;9657;45.940;12.840;2023-08-31T08:22:37;2.17;;;1.20;;
19049;SDS011;9657;45.940;12.840;2023-08-31T08:25:04;1.10;;;0.90;;
19049;SDS011;9657;45.940;12.840;2023-08-31T08:27:32;1.75;;;0.90;;
19049;SDS011;9657;45.940;12.840;2023-08-31T08:29:59;1.85;;;1.10;;
19049;SDS011;9657;45.940;12.840;2023-08-31T08:32:28;3.22;;;1.50;;
19049;SDS011;9657;45.940;12.840;2023-08-31T08:34:55;2.75;;;1.27;;
19049;SDS011;9657;45.940;12.840;2023-08-31T08:37:22;2.55;;;1.20;;
19049;SDS011;9657;45.940;12.840;2023-08-31T08:39:50;2.63;;;0.88;;
19049;SDS011;9657;45.940;12.840;2023-08-31T08:42:18;1.73;;;1.13;;
19049;SDS011;9657;45.940;12.840;2023-08-31T08:44:45;1.92;;;1.10;;
19049;SDS011;9657;45.940;12.840;2023-08-31T08:47:13;2.03;;;1.05;;
19049;SDS011;9657;45.940;12.840;2023-08-31T08:49:42;2.70;;;1.08;;
19049;SDS011;9657;45.940;12.840;2023-08-31T08:52:09;2.97;;;1.55;;
19049;SDS011;9657;45.940;12.840;2023-08-31T08:54:38;3.92;;;1.40;;
19049;SDS011;9657;45.940;12.840;2023-08-31T08:57:05;2.97;;;1.33;;
19049;SDS011;9657;45.940;12.840;2023-08-31T08:59:32;2.05;;;1.15;;
19049;SDS011;9657;45.940;12.840;2023-08-31T09:01:59;2.35;;;0.95;;
19049;SDS011;9657;45.940;12.840;2023-08-31T09:04:28;2.15;;;0.90;;
19049;SDS011;9657;45.940;12.840;2023-08-31T09:06:58;2.10;;;0.70;;
19049;SDS011;9657;45.940;12.840;2023-08-31T09:09:25;2.15;;;1.08;;
19049;SDS011;9657;45.940;12.840;2023-08-31T09:11:52;1.60;;;0.77;;
19049;SDS011;9657;45.940;12.840;2023-08-31T09:14:20;1.30;;;0.75;;
19049;SDS011;9657;45.940;12.840;2023-08-31T09:16:48;2.78;;;1.10;;
19049;SDS011;9657;45.940;12.840;2023-08-31T09:19:19;2.75;;;1.00;;
19049;SDS011;9657;45.940;12.840;2023-08-31T09:21:47;1.27;;;0.98;;
19049;SDS011;9657;45.940;12.840;2023-08-31T09:24:16;1.50;;;0.93;;
19049;SDS011;9657;45.940;12.840;2023-08-31T09:26:43;2.45;;;0.90;;
19049;SDS011;9657;45.940;12.840;2023-08-31T09:29:11;3.28;;;1.00;;
19049;SDS011;9657;45.940;12.840;2023-08-31T09:31:41;1.63;;;0.95;;
19049;SDS011;9657;45.940;12.840;2023-08-31T09:34:09;1.67;;;1.15;;
19049;SDS011;9657;45.940;12.840;2023-08-31T09:36:36;1.20;;;0.98;;
19049;SDS011;9657;45.940;12.840;2023-08-31T09:39:05;1.42;;;0.73;;
19049;SDS011;9657;45.940;12.840;2023-08-31T09:41:35;3.40;;;1.00;;
19049;SDS011;9657;45.940;12.840;2023-08-31T09:46:50;1.75;;;0.80;;
19049;SDS011;9657;45.940;12.840;2023-08-31T09:49:19;2.45;;;1.30;;
19049;SDS011;9657;45.940;12.840;2023-08-31T09:51:48;1.17;;;1.05;;
19049;SDS011;9657;45.940;12.840;2023-08-31T09:54:17;2.35;;;1.27;;
19049;SDS011;9657;45.940;12.840;2023-08-31T09:56:48;2.22;;;1.10;;
19049;SDS011;9657;45.940;12.840;2023-08-31T09:59:15;1.23;;;1.05;;
19049;SDS011;9657;45.940;12.840;2023-08-31T10:01:43;1.30;;;0.90;;
19049;SDS011;9657;45.940;12.840;2023-08-31T10:04:11;1.23;;;1.10;;
19049;SDS011;9657;45.940;12.840;2023-08-31T10:06:39;2.47;;;1.02;;
19049;SDS011;9657;45.940;12.840;2023-08-31T10:09:07;1.38;;;1.10;;
19049;SDS011;9657;45.940;12.840;2023-08-31T10:11:37;1.75;;;1.00;;
19049;SDS011;9657;45.940;12.840;2023-08-31T10:14:06;1.13;;;0.90;;
19049;SDS011;9657;45.940;12.840;2023-08-31T10:16:35;1.17;;;0.80;;
19049;SDS011;9657;45.940;12.840;2023-08-31T10:19:02;0.85;;;0.57;;
19049;SDS011;9657;45.940;12.840;2023-08-31T10:21:31;1.23;;;0.77;;
19049;SDS011;9657;45.940;12.840;2023-08-31T10:23:59;1.50;;;0.80;;
19049;SDS011;9657;45.940;12.840;2023-08-31T10:26:27;2.28;;;0.80;;
19049;SDS011;9657;45.940;12.840;2023-08-31T10:28:55;0.90;;;0.73;;
19049;SDS011;9657;45.940;12.840;2023-08-31T10:31:27;1.90;;;1.13;;
19049;SDS011;9657;45.940;12.840;2023-08-31T10:33:55;1.98;;;0.88;;
19049;SDS011;9657;45.940;12.840;2023-08-31T10:36:34;2.70;;;0.80;;
19049;SDS011;9657;45.940;12.840;2023-08-31T10:39:07;1.52;;;0.52;;
19049;SDS011;9657;45.940;12.840;2023-08-31T10:41:38;1.90;;;0.60;;
19049;SDS011;9657;45.940;12.840;2023-08-31T10:46:49;2.28;;;0.65;;
19049;SDS011;9657;45.940;12.840;2023-08-31T10:49:18;0.88;;;0.73;;
19049;SDS011;9657;45.940;12.840;2023-08-31T10:51:46;1.42;;;0.63;;
19049;SDS011;9657;45.940;12.840;2023-08-31T10:54:19;1.20;;;0.60;;
19049;SDS011;9657;45.940;12.840;2023-08-31T10:56:54;0.85;;;0.50;;
19049;SDS011;9657;45.940;12.840;2023-08-31T10:59:40;1.20;;;0.68;;
19049;SDS011;9657;45.940;12.840;2023-08-31T11:05:08;0.95;;;0.70;;
19049;SDS011;9657;45.940;12.840;2023-08-31T11:07:37;1.50;;;0.70;;
19049;SDS011;9657;45.940;12.840;2023-08-31T11:10:12;1.27;;;0.50;;
19049;SDS011;9657;45.940;12.840;2023-08-31T11:12:42;0.70;;;0.70;;
19049;SDS011;9657;45.940;12.840;2023-08-31T11:15:11;0.75;;;0.60;;
19049;SDS011;9657;45.940;12.840;2023-08-31T11:17:39;1.23;;;0.63;;
19049;SDS011;9657;45.940;12.840;2023-08-31T11:22:27;1.48;;;0.93;;
19049;SDS011;9657;45.940;12.840;2023-08-31T11:24:54;1.15;;;0.80;;
19049;SDS011;9657;45.940;12.840;2023-08-31T11:27:23;2.08;;;1.00;;
19049;SDS011;9657;45.940;12.840;2023-08-31T11:29:51;2.67;;;0.90;;
19049;SDS011;9657;45.940;12.840;2023-08-31T11:32:18;1.60;;;0.75;;
19049;SDS011;9657;45.940;12.840;2023-08-31T11:34:45;1.92;;;1.15;;
19049;SDS011;9657;45.940;12.840;2023-08-31T11:37:12;1.23;;;0.88;;
19049;SDS011;9657;45.940;12.840;2023-08-31T11:39:43;1.38;;;0.80;;
19049;SDS011;9657;45.940;12.840;2023-08-31T11:42:15;0.90;;;0.70;;
19049;SDS011;9657;45.940;12.840;2023-08-31T11:44:43;2.90;;;0.95;;
19049;SDS011;9657;45.940;12.840;2023-08-31T11:47:11;1.65;;;0.90;;
19049;SDS011;9657;45.940;12.840;2023-08-31T11:49:39;1.80;;;0.70;;
19049;SDS011;9657;45.940;12.840;2023-08-31T11:52:08;2.60;;;0.90;;
19049;SDS011;9657;45.940;12.840;2023-08-31T11:54:37;1.23;;;0.65;;
19049;SDS011;9657;45.940;12.840;2023-08-31T11:57:07;0.95;;;0.82;;
19049;SDS011;9657;45.940;12.840;2023-08-31T11:59:35;2.05;;;0.80;;
19049;SDS011;9657;45.940;12.840;2023-08-31T12:02:05;1.25;;;0.90;;
19049;SDS011;9657;45.940;12.840;2023-08-31T12:04:33;0.73;;;0.73;;
19049;SDS011;9657;45.940;12.840;2023-08-31T12:07:07;2.35;;;0.70;;
19049;SDS011;9657;45.940;12.840;2023-08-31T12:09:34;1.02;;;0.80;;
19049;SDS011;9657;45.940;12.840;2023-08-31T12:12:02;1.70;;;0.60;;
19049;SDS011;9657;45.940;12.840;2023-08-31T12:14:31;0.60;;;0.60;;
19049;SDS011;9657;45.940;12.840;2023-08-31T12:17:01;1.58;;;0.75;;
19049;SDS011;9657;45.940;12.840;2023-08-31T12:19:29;1.05;;;0.88;;
19049;SDS011;9657;45.940;12.840;2023-08-31T12:21:58;1.58;;;0.77;;
19049;SDS011;9657;45.940;12.840;2023-08-31T12:24:25;1.25;;;0.50;;
19049;SDS011;9657;45.940;12.840;2023-08-31T12:26:52;1.38;;;0.65;;
19049;SDS011;9657;45.940;12.840;2023-08-31T12:29:20;1.38;;;0.70;;
19049;SDS011;9657;45.940;12.840;2023-08-31T12:31:49;0.73;;;0.55;;
19049;SDS011;9657;45.940;12.840;2023-08-31T12:34:16;1.85;;;0.68;;
19049;SDS011;9657;45.940;12.840;2023-08-31T12:36:43;1.85;;;0.52;;
19049;SDS011;9657;45.940;12.840;2023-08-31T12:39:10;1.67;;;0.65;;
19049;SDS011;9657;45.940;12.840;2023-08-31T12:41:38;1.05;;;0.60;;
19049;SDS011;9657;45.940;12.840;2023-08-31T12:44:05;2.65;;;0.65;;
19049;SDS011;9657;45.940;12.840;2023-08-31T12:46:32;1.38;;;0.65;;
19049;SDS011;9657;45.940;12.840;2023-08-31T12:49:02;0.60;;;0.60;;
19049;SDS011;9657;45.940;12.840;2023-08-31T12:51:29;0.47;;;0.47;;
19049;SDS011;9657;45.940;12.840;2023-08-31T12:53:56;1.00;;;0.57;;
19049;SDS011;9657;45.940;12.840;2023-08-31T12:56:24;0.73;;;0.60;;
19049;SDS011;9657;45.940;12.840;2023-08-31T12:58:51;0.70;;;0.70;;
19049;SDS011;9657;45.940;12.840;2023-08-31T13:01:19;0.77;;;0.65;;
19049;SDS011;9657;45.940;12.840;2023-08-31T13:03:48;0.63;;;0.63;;
19049;SDS011;9657;45.940;12.840;2023-08-31T13:06:16;0.80;;;0.77;;
19049;SDS011;9657;45.940;12.840;2023-08-31T13:08:43;0.82;;;0.57;;
19049;SDS011;9657;45.940;12.840;2023-08-31T13:11:11;0.70;;;0.50;;
19049;SDS011;9657;45.940;12.840;2023-08-31T13:13:38;1.15;;;0.55;;
19049;SDS011;9657;45.940;12.840;2023-08-31T13:16:06;1.08;;;0.65;;
19049;SDS011;9657;45.940;12.840;2023-08-31T13:18:33;1.50;;;0.73;;
19049;SDS011;9657;45.940;12.840;2023-08-31T13:21:00;0.82;;;0.82;;
19049;SDS011;9657;45.940;12.840;2023-08-31T13:23:30;1.48;;;0.80;;
19049;SDS011;9657;45.940;12.840;2023-08-31T13:25:57;1.08;;;0.75;;
19049;SDS011;9657;45.940;12.840;2023-08-31T13:28:24;0.68;;;0.68;;
19049;SDS011;9657;45.940;12.840;2023-08-31T13:30:54;0.93;;;0.55;;
19049;SDS011;9657;45.940;12.840;2023-08-31T13:33:22;0.70;;;0.68;;
19049;SDS011;9657;45.940;12.840;2023-08-31T13:35:49;0.63;;;0.50;;
19049;SDS011;9657;45.940;12.840;2023-08-31T13:38:17;0.90;;;0.55;;
19049;SDS011;9657;45.940;12.840;2023-08-31T13:40:45;0.70;;;0.68;;
19049;SDS011;9657;45.940;12.840;2023-08-31T13:43:12;0.90;;;0.40;;
19049;SDS011;9657;45.940;12.840;2023-08-31T13:45:39;0.70;;;0.60;;
19049;SDS011;9657;45.940;12.840;2023-08-31T13:48:06;1.58;;;0.50;;
19049;SDS011;9657;45.940;12.840;2023-08-31T13:50:33;0.60;;;0.60;;
19049;SDS011;9657;45.940;12.840;2023-08-31T13:53:00;0.63;;;0.60;;
19049;SDS011;9657;45.940;12.840;2023-08-31T13:55:27;0.55;;;0.55;;
19049;SDS011;9657;45.940;12.840;2023-08-31T13:58:02;0.50;;;0.50;;
19049;SDS011;9657;45.940;12.840;2023-08-31T14:00:31;1.38;;;0.50;;
19049;SDS011;9657;45.940;12.840;2023-08-31T14:02:58;0.65;;;0.65;;
19049;SDS011;9657;45.940;12.840;2023-08-31T14:05:28;0.95;;;0.55;;
19049;SDS011;9657;45.940;12.840;2023-08-31T14:07:55;0.60;;;0.30;;
19049;SDS011;9657;45.940;12.840;2023-08-31T14:10:23;0.77;;;0.65;;
19049;SDS011;9657;45.940;12.840;2023-08-31T14:12:50;0.50;;;0.50;;
19049;SDS011;9657;45.940;12.840;2023-08-31T14:15:18;0.75;;;0.50;;
19049;SDS011;9657;45.940;12.840;2023-08-31T14:17:46;0.88;;;0.55;;
19049;SDS011;9657;45.940;12.840;2023-08-31T14:20:13;0.52;;;0.50;;
19049;SDS011;9657;45.940;12.840;2023-08-31T14:22:40;0.57;;;0.57;;
19049;SDS011;9657;45.940;12.840;2023-08-31T14:25:09;0.65;;;0.47;;
19049;SDS011;9657;45.940;12.840;2023-08-31T14:27:37;2.05;;;0.60;;
19049;SDS011;9657;45.940;12.840;2023-08-31T14:30:04;1.27;;;0.70;;
19049;SDS011;9657;45.940;12.840;2023-08-31T14:32:34;0.70;;;0.50;;
19049;SDS011;9657;45.940;12.840;2023-08-31T14:35:01;0.65;;;0.52;;
19049;SDS011;9657;45.940;12.840;2023-08-31T14:37:29;0.68;;;0.60;;
19049;SDS011;9657;45.940;12.840;2023-08-31T14:39:56;0.60;;;0.60;;
19049;SDS011;9657;45.940;12.840;2023-08-31T14:42:23;1.15;;;0.50;;
19049;SDS011;9657;45.940;12.840;2023-08-31T14:44:51;0.77;;;0.47;;
19049;SDS011;9657;45.940;12.840;2023-08-31T14:47:18;0.50;;;0.47;;
19049;SDS011;9657;45.940;12.840;2023-08-31T14:49:46;0.95;;;0.75;;
19049;SDS011;9657;45.940;12.840;2023-08-31T14:52:13;1.58;;;0.65;;
19049;SDS011;9657;45.940;12.840;2023-08-31T14:54:40;0.50;;;0.50;;
19049;SDS011;9657;45.940;12.840;2023-08-31T14:57:07;1.55;;;0.70;;
19049;SDS011;9657;45.940;12.840;2023-08-31T14:59:34;0.60;;;0.60;;
19049;SDS011;9657;45.940;12.840;2023-08-31T15:02:01;0.65;;;0.52;;
19049;SDS011;9657;45.940;12.840;2023-08-31T15:04:30;0.60;;;0.52;;
19049;SDS011;9657;45.940;12.840;2023-08-31T15:06:58;1.00;;;0.60;;